createdAt,value
2019-03-06T00:00:51.456Z,6.17
2019-03-06T00:03:20.409Z,6.70
2019-03-06T00:05:49.099Z,8.53
2019-03-06T00:08:17.765Z,8.30
2019-03-06T00:10:46.801Z,8.90
2019-03-06T00:13:15.495Z,7.60
2019-03-06T00:15:44.483Z,9.30
2019-03-06T00:18:13.150Z,5.97
2019-03-06T00:20:41.868Z,7.87
2019-03-06T00:23:10.845Z,7.47
2019-03-06T00:25:39.511Z,8.60
2019-03-06T00:28:08.511Z,6.90
2019-03-06T00:30:37.354Z,8.67
2019-03-06T00:33:06.065Z,8.20
2019-03-06T00:35:38.469Z,8.90
2019-03-06T00:38:07.471Z,7.17
2019-03-06T00:40:47.643Z,9.70
2019-03-06T00:43:16.611Z,13.60
2019-03-06T00:45:45.320Z,6.40
2019-03-06T00:48:14.214Z,6.53
2019-03-06T00:50:42.970Z,7.13
2019-03-06T00:53:12.028Z,6.87
2019-03-06T00:55:41.284Z,8.77
2019-03-06T00:58:10.281Z,10.73
2019-03-06T01:00:38.993Z,8.50
2019-03-06T01:03:08.096Z,9.00
2019-03-06T01:05:36.980Z,9.73
2019-03-06T01:08:06.667Z,9.10
2019-03-06T01:10:36.051Z,6.73
2019-03-06T01:13:05.455Z,7.90
2019-03-06T01:15:35.523Z,8.57
2019-03-06T01:18:04.967Z,9.03
2019-03-06T01:20:33.678Z,6.93
2019-03-06T01:23:02.770Z,7.20
2019-03-06T01:25:31.687Z,7.20
2019-03-06T01:28:01.004Z,5.47
2019-03-06T01:30:29.627Z,13.53
2019-03-06T01:33:05.132Z,9.20
2019-03-06T01:35:52.643Z,10.07
2019-03-06T01:38:33.210Z,8.97
2019-03-06T01:41:17.087Z,9.43
2019-03-06T01:43:52.658Z,6.97
2019-03-06T01:46:21.769Z,9.40
2019-03-06T01:48:50.411Z,7.67
2019-03-06T01:51:19.063Z,10.60
2019-03-06T01:53:47.753Z,10.87
2019-03-06T01:56:16.832Z,6.53
2019-03-06T01:58:45.512Z,7.17
2019-03-06T02:01:14.161Z,9.63
2019-03-06T02:03:42.885Z,7.50
2019-03-06T02:06:11.524Z,14.37
2019-03-06T02:08:40.243Z,8.50
2019-03-06T02:11:08.898Z,10.37
2019-03-06T02:13:37.563Z,11.23
2019-03-06T02:16:06.530Z,12.53
2019-03-06T02:18:35.161Z,7.70
2019-03-06T02:21:04.116Z,8.20
2019-03-06T02:23:32.892Z,9.27
2019-03-06T02:26:01.890Z,7.20
2019-03-06T02:28:30.519Z,12.93
2019-03-06T02:30:59.255Z,14.60
2019-03-06T02:33:27.894Z,7.20
2019-03-06T02:35:56.555Z,8.07
2019-03-06T02:38:25.209Z,9.57
2019-03-06T02:40:53.858Z,9.43
2019-03-06T02:43:22.515Z,8.23
2019-03-06T02:45:51.708Z,12.30
2019-03-06T02:48:20.390Z,12.10
2019-03-06T02:50:49.367Z,9.20
2019-03-06T02:53:18.017Z,9.67
2019-03-06T02:55:46.861Z,9.03
2019-03-06T02:58:28.346Z,9.47
2019-03-06T03:01:16.540Z,9.27
2019-03-06T03:04:02.660Z,8.07
2019-03-06T03:06:36.041Z,9.93
2019-03-06T03:09:14.653Z,8.60
2019-03-06T03:11:46.636Z,10.20
2019-03-06T03:14:16.213Z,10.97
2019-03-06T03:16:45.170Z,8.83
2019-03-06T03:19:14.999Z,8.97
2019-03-06T03:21:45.453Z,14.77
2019-03-06T03:24:14.775Z,8.53
2019-03-06T03:26:44.137Z,8.50
2019-03-06T03:29:13.204Z,11.27
2019-03-06T03:31:42.603Z,9.97
2019-03-06T03:34:11.250Z,9.00
2019-03-06T03:36:44.369Z,12.23
2019-03-06T03:39:13.831Z,11.60
2019-03-06T03:41:44.252Z,12.47
2019-03-06T03:44:12.976Z,15.73
2019-03-06T03:46:45.213Z,8.97
2019-03-06T03:49:15.005Z,12.47
2019-03-06T03:51:44.173Z,11.17
2019-03-06T03:54:12.900Z,15.03
2019-03-06T03:56:41.912Z,11.20
2019-03-06T03:59:10.625Z,15.60
2019-03-06T04:01:39.954Z,10.30
2019-03-06T04:04:08.671Z,12.67
2019-03-06T04:06:37.962Z,14.07
2019-03-06T04:09:07.217Z,12.93
2019-03-06T04:11:35.949Z,10.77
2019-03-06T04:14:04.686Z,12.67
2019-03-06T04:16:33.320Z,13.50
2019-03-06T04:19:02.081Z,11.80
2019-03-06T04:21:31.066Z,10.13
2019-03-06T04:24:00.065Z,15.67
2019-03-06T04:26:29.062Z,11.50
2019-03-06T04:28:58.247Z,12.37
2019-03-06T04:31:26.899Z,12.70
2019-03-06T04:33:55.588Z,13.97
2019-03-06T04:36:24.525Z,10.13
2019-03-06T04:38:54.451Z,12.30
2019-03-06T04:41:23.434Z,12.77
2019-03-06T04:43:52.413Z,10.17
2019-03-06T04:46:21.063Z,14.30
2019-03-06T04:48:49.691Z,13.90
2019-03-06T04:51:18.640Z,15.33
2019-03-06T04:53:47.278Z,10.37
2019-03-06T04:56:15.958Z,12.43
2019-03-06T04:58:44.676Z,12.27
2019-03-06T05:01:13.640Z,14.27
2019-03-06T05:03:42.643Z,11.10
2019-03-06T05:06:11.535Z,17.40
2019-03-06T05:08:40.169Z,15.60
2019-03-06T05:11:08.852Z,14.23
2019-03-06T05:13:37.548Z,11.30
2019-03-06T05:16:06.565Z,16.27
2019-03-06T05:18:45.377Z,13.97
2019-03-06T05:21:14.019Z,15.97
2019-03-06T05:23:42.680Z,17.00
2019-03-06T05:26:11.326Z,17.37
2019-03-06T05:28:39.958Z,15.53
2019-03-06T05:31:09.044Z,13.77
2019-03-06T05:33:37.685Z,13.60
2019-03-06T05:36:51.988Z,17.70
2019-03-06T05:39:28.995Z,16.70
2019-03-06T05:42:02.220Z,17.07
2019-03-06T05:44:40.638Z,22.50
2019-03-06T05:47:11.300Z,15.90
2019-03-06T05:49:40.258Z,17.53
2019-03-06T05:52:09.458Z,17.27
2019-03-06T05:54:38.104Z,18.60
2019-03-06T05:57:09.564Z,20.13
2019-03-06T05:59:39.960Z,20.90
2019-03-06T06:02:08.829Z,17.33
2019-03-06T06:04:40.293Z,18.33
2019-03-06T06:07:10.325Z,18.50
2019-03-06T06:09:39.030Z,16.53
2019-03-06T06:12:09.789Z,19.53
2019-03-06T06:14:41.187Z,17.10
2019-03-06T06:17:09.736Z,13.97
2019-03-06T06:19:38.558Z,12.40
2019-03-06T06:22:18.187Z,16.20
2019-03-06T06:24:48.811Z,12.73
2019-03-06T06:27:17.363Z,12.37
2019-03-06T06:29:46.853Z,12.50
2019-03-06T06:32:15.679Z,12.13
2019-03-06T06:34:44.335Z,13.30
2019-03-06T06:37:13.391Z,10.33
2019-03-06T06:39:42.152Z,10.80
2019-03-06T06:42:12.209Z,9.40
2019-03-06T06:44:40.908Z,9.90
2019-03-06T06:47:10.919Z,9.77
2019-03-06T06:49:39.792Z,9.40
2019-03-06T06:52:53.165Z,11.77
2019-03-06T06:55:51.216Z,9.77
2019-03-06T06:58:49.195Z,9.77
2019-03-06T07:01:52.111Z,8.93
2019-03-06T07:05:03.715Z,10.43
2019-03-06T07:07:53.528Z,5.60
2019-03-06T07:10:41.661Z,15.30
2019-03-06T07:13:16.092Z,7.70
2019-03-06T07:16:11.343Z,9.47
2019-03-06T07:19:19.555Z,10.23
2019-03-06T07:22:09.615Z,7.90
2019-03-06T07:24:44.539Z,7.03
2019-03-06T07:27:28.278Z,7.50
2019-03-06T07:30:15.587Z,7.83
2019-03-06T07:33:07.115Z,8.07
2019-03-06T07:35:59.869Z,8.80
2019-03-06T07:38:28.828Z,11.63
2019-03-06T07:41:08.684Z,8.97
2019-03-06T07:43:46.767Z,7.27
2019-03-06T07:46:24.984Z,7.80
2019-03-06T07:49:21.949Z,7.27
2019-03-06T07:52:03.179Z,6.63
2019-03-06T07:54:50.387Z,8.93
2019-03-06T07:57:27.711Z,7.73
2019-03-06T07:59:56.660Z,6.53
2019-03-06T08:02:59.306Z,7.80
2019-03-06T08:05:28.969Z,6.83
2019-03-06T08:07:57.723Z,7.30
2019-03-06T08:10:29.636Z,6.70
2019-03-06T08:13:06.762Z,9.00
2019-03-06T08:15:42.831Z,6.80
2019-03-06T08:18:28.959Z,6.03
2019-03-06T08:21:16.743Z,5.50
2019-03-06T08:24:01.177Z,6.80
2019-03-06T08:26:29.935Z,5.67
2019-03-06T08:28:58.694Z,5.07
2019-03-06T08:31:36.606Z,5.63
2019-03-06T08:34:05.977Z,7.50
2019-03-06T08:36:34.668Z,5.77
2019-03-06T08:39:05.531Z,6.80
2019-03-06T08:41:34.187Z,5.60
2019-03-06T08:44:02.859Z,6.97
2019-03-06T08:46:59.667Z,4.73
2019-03-06T08:49:55.202Z,5.97
2019-03-06T08:52:30.812Z,9.03
2019-03-06T08:55:24.503Z,8.53
2019-03-06T08:58:14.411Z,6.07
2019-03-06T09:01:09.122Z,4.00
2019-03-06T09:04:02.964Z,4.13
2019-03-06T09:06:36.975Z,4.80
2019-03-06T09:09:23.917Z,5.97
2019-03-06T09:12:11.257Z,6.77
2019-03-06T09:15:03.939Z,5.30
2019-03-06T09:18:08.829Z,6.07
2019-03-06T09:20:57.566Z,5.20
2019-03-06T09:23:44.626Z,4.33
2019-03-06T09:26:19.908Z,5.03
2019-03-06T09:29:12.058Z,6.50
2019-03-06T09:31:46.804Z,7.67
2019-03-06T09:34:22.120Z,6.93
2019-03-06T09:37:22.156Z,5.50
2019-03-06T09:39:59.424Z,6.27
2019-03-06T09:42:49.338Z,4.37
2019-03-06T09:45:26.883Z,3.57
2019-03-06T09:48:17.202Z,8.23
2019-03-06T09:50:58.872Z,4.03
2019-03-06T09:53:38.728Z,7.67
2019-03-06T09:56:14.544Z,4.13
2019-03-06T09:59:01.689Z,7.77
2019-03-06T10:01:48.643Z,7.63
2019-03-06T10:04:39.988Z,4.63
2019-03-06T10:07:16.858Z,5.87
2019-03-06T10:10:03.343Z,6.63
2019-03-06T10:12:47.205Z,4.07
2019-03-06T10:15:32.853Z,5.23
2019-03-06T10:18:05.584Z,4.10
2019-03-06T10:20:34.256Z,4.17
2019-03-06T10:23:02.992Z,5.23
2019-03-06T10:25:31.830Z,5.50
2019-03-06T10:28:06.290Z,6.70
2019-03-06T10:30:32.048Z,8.00
2019-03-06T10:33:00.763Z,5.73
2019-03-06T10:35:29.823Z,7.13
2019-03-06T10:37:58.750Z,8.40
2019-03-06T10:40:28.081Z,6.23
2019-03-06T10:42:57.187Z,7.33
2019-03-06T10:45:26.016Z,5.07
2019-03-06T10:47:55.449Z,5.13
2019-03-06T10:50:27.355Z,3.90
2019-03-06T10:52:55.007Z,3.67
2019-03-06T10:55:23.645Z,7.50
2019-03-06T10:57:53.236Z,4.00
2019-03-06T11:00:26.921Z,3.27
2019-03-06T11:02:57.013Z,3.77
2019-03-06T11:05:27.895Z,4.90
2019-03-06T11:07:58.422Z,7.30
2019-03-06T11:10:27.664Z,4.17
2019-03-06T11:12:57.497Z,5.27
2019-03-06T11:15:26.385Z,3.63
2019-03-06T11:17:55.561Z,5.10
2019-03-06T11:20:27.600Z,3.37
2019-03-06T11:22:57.930Z,3.17
2019-03-06T11:25:28.473Z,4.23
2019-03-06T11:27:57.778Z,4.00
2019-03-06T11:30:30.351Z,4.77
2019-03-06T11:32:59.247Z,6.27
2019-03-06T11:35:28.441Z,4.13
2019-03-06T11:37:57.199Z,4.70
2019-03-06T11:40:26.020Z,3.60
2019-03-06T11:42:55.115Z,2.80
2019-03-06T11:45:24.039Z,2.90
2019-03-06T11:47:52.847Z,5.37
2019-03-06T11:50:21.838Z,2.90
2019-03-06T11:52:50.655Z,4.70
2019-03-06T11:55:19.732Z,5.43
2019-03-06T11:57:48.380Z,2.77
2019-03-06T12:00:32.749Z,3.30
2019-03-06T12:03:01.614Z,3.47
2019-03-06T12:05:30.611Z,3.37
2019-03-06T12:07:59.274Z,2.60
2019-03-06T12:10:31.435Z,1.93
2019-03-06T12:13:00.176Z,4.43
2019-03-06T12:15:29.233Z,3.60
2019-03-06T12:17:58.438Z,9.70
2019-03-06T12:20:27.335Z,1.90
2019-03-06T12:22:56.142Z,3.07
2019-03-06T12:25:24.868Z,3.33
2019-03-06T12:27:53.489Z,2.37
2019-03-06T12:30:22.259Z,2.67
2019-03-06T12:32:51.230Z,2.90
2019-03-06T12:35:21.202Z,6.03
2019-03-06T12:37:51.007Z,2.10
2019-03-06T12:40:20.605Z,4.80
2019-03-06T12:42:49.346Z,1.50
2019-03-06T12:45:18.532Z,1.90
2019-03-06T12:47:55.110Z,2.37
2019-03-06T12:50:20.995Z,1.93
2019-03-06T12:52:49.661Z,6.53
2019-03-06T12:55:18.395Z,2.20
2019-03-06T12:57:47.165Z,1.83
2019-03-06T13:00:19.501Z,4.30
2019-03-06T13:02:48.223Z,2.90
2019-03-06T13:05:18.324Z,1.73
2019-03-06T13:07:47.071Z,2.90
2019-03-06T13:10:15.890Z,4.43
2019-03-06T13:12:45.603Z,1.80
2019-03-06T13:15:16.240Z,3.50
2019-03-06T13:17:45.167Z,3.53
2019-03-06T13:20:14.406Z,2.83
2019-03-06T13:22:43.565Z,1.97
2019-03-06T13:25:12.665Z,5.23
2019-03-06T13:27:41.332Z,2.43
2019-03-06T13:30:11.356Z,1.53
2019-03-06T13:33:05.309Z,2.53
2019-03-06T13:35:34.714Z,2.60
2019-03-06T13:38:03.532Z,1.70
2019-03-06T13:40:32.408Z,2.90
2019-03-06T13:43:02.411Z,3.67
2019-03-06T13:45:31.415Z,2.20
2019-03-06T13:48:00.308Z,1.67
2019-03-06T13:50:30.089Z,1.63
2019-03-06T13:52:58.997Z,2.50
2019-03-06T13:55:27.828Z,2.50
2019-03-06T13:57:57.831Z,1.47
2019-03-06T14:00:26.902Z,1.40
2019-03-06T14:02:55.574Z,3.00
2019-03-06T14:05:24.639Z,1.37
2019-03-06T14:07:56.693Z,1.77
2019-03-06T14:10:24.145Z,1.10
2019-03-06T14:12:53.618Z,1.20
2019-03-06T14:15:28.825Z,2.23
2019-03-06T14:18:00.633Z,4.43
2019-03-06T14:20:29.571Z,2.73
2019-03-06T14:22:58.479Z,0.93
2019-03-06T14:25:27.714Z,1.57
2019-03-06T14:27:56.497Z,1.27
2019-03-06T14:30:26.038Z,5.07
2019-03-06T14:32:55.019Z,1.27
2019-03-06T14:35:24.811Z,1.60
2019-03-06T14:37:53.631Z,1.67
2019-03-06T14:40:27.519Z,1.50
2019-03-06T14:42:56.550Z,2.03
2019-03-06T14:45:25.596Z,1.10
2019-03-06T14:47:55.030Z,1.30
2019-03-06T14:50:24.210Z,1.80
2019-03-06T14:52:53.073Z,2.97
2019-03-06T14:55:22.194Z,2.13
2019-03-06T14:57:51.000Z,1.33
2019-03-06T15:00:20.517Z,2.23
2019-03-06T15:02:49.604Z,3.60
2019-03-06T15:05:19.150Z,1.93
2019-03-06T15:07:48.299Z,2.00
2019-03-06T15:10:17.748Z,1.83
2019-03-06T15:12:47.001Z,1.50
2019-03-06T15:15:16.092Z,2.57
2019-03-06T15:17:45.001Z,2.13
2019-03-06T15:20:16.452Z,2.93
2019-03-06T15:22:45.582Z,2.90
2019-03-06T15:25:16.828Z,2.17
2019-03-06T15:27:45.868Z,3.73
2019-03-06T15:30:15.923Z,4.23
2019-03-06T15:32:44.976Z,3.17
2019-03-06T15:35:14.252Z,5.13
2019-03-06T15:37:54.668Z,5.57
2019-03-06T15:40:34.687Z,1.93
2019-03-06T15:43:06.308Z,5.10
2019-03-06T15:45:38.328Z,4.73
2019-03-06T15:48:13.146Z,3.60
2019-03-06T15:56:03.499Z,3.33
2019-03-06T15:58:32.695Z,5.23
2019-03-06T16:01:06.471Z,5.57
2019-03-06T16:03:38.649Z,5.23
2019-03-06T16:06:20.555Z,3.20
2019-03-06T16:08:51.378Z,4.47
2019-03-06T16:11:25.770Z,4.40
2019-03-06T16:13:54.905Z,4.77
2019-03-06T16:16:29.682Z,4.33
2019-03-06T16:19:06.974Z,4.37
2019-03-06T16:21:49.473Z,5.77
2019-03-06T16:24:23.402Z,6.07
2019-03-06T16:26:55.210Z,4.90
2019-03-06T16:29:26.768Z,5.13
2019-03-06T16:31:58.298Z,7.27
2019-03-06T16:34:32.310Z,4.17
2019-03-06T16:37:03.523Z,5.00
2019-03-06T16:39:35.146Z,6.47
2019-03-06T16:42:09.230Z,5.10
2019-03-06T16:44:52.195Z,5.37
2019-03-06T16:47:28.577Z,4.73
2019-03-06T16:50:13.461Z,5.93
2019-03-06T16:52:43.450Z,4.93
2019-03-06T16:55:15.988Z,4.60
2019-03-06T16:57:50.317Z,5.10
2019-03-06T17:00:33.043Z,5.13
2019-03-06T17:03:05.436Z,4.93
2019-03-06T17:05:42.838Z,7.17
2019-03-06T17:08:11.597Z,5.37
2019-03-06T17:10:49.500Z,4.13
2019-03-06T17:13:23.338Z,6.87
2019-03-06T17:15:55.750Z,4.53
2019-03-06T17:18:24.496Z,5.60
2019-03-06T17:20:55.821Z,7.10
2019-03-06T17:23:30.109Z,5.00
2019-03-06T17:26:02.141Z,6.23
2019-03-06T17:28:35.083Z,5.37
2019-03-06T17:31:04.249Z,4.77
2019-03-06T17:33:58.365Z,5.37
2019-03-06T17:36:30.049Z,4.93
2019-03-06T17:39:08.678Z,7.63
2019-03-06T17:41:35.263Z,5.70
2019-03-06T17:44:04.191Z,3.93
2019-03-06T17:46:32.960Z,6.20
2019-03-06T17:49:01.860Z,5.13
2019-03-06T17:51:30.772Z,7.30
2019-03-06T17:53:59.510Z,5.70
2019-03-06T17:56:28.536Z,5.70
2019-03-06T17:58:57.205Z,3.90
2019-03-06T18:01:25.859Z,7.67
2019-03-06T18:04:11.375Z,6.10
2019-03-06T18:06:40.452Z,4.70
2019-03-06T18:09:09.873Z,5.07
2019-03-06T18:11:38.786Z,6.00
2019-03-06T18:14:07.455Z,5.43
2019-03-06T18:16:37.274Z,6.53
2019-03-06T18:19:06.076Z,4.33
2019-03-06T18:21:34.804Z,5.90
2019-03-06T18:24:03.940Z,5.93
2019-03-06T18:26:33.085Z,4.07
2019-03-06T18:29:02.098Z,6.97
2019-03-06T18:31:31.315Z,4.73
2019-03-06T18:34:00.067Z,6.63
2019-03-06T18:36:28.820Z,7.47
2019-03-06T18:38:57.502Z,5.27
2019-03-06T18:41:26.390Z,6.17
2019-03-06T18:43:55.187Z,4.60
2019-03-06T18:46:23.890Z,6.30
2019-03-06T18:48:52.639Z,4.40
2019-03-06T18:51:21.346Z,5.70
2019-03-06T18:53:50.352Z,4.47
2019-03-06T18:56:19.019Z,5.13
2019-03-06T18:58:47.823Z,8.87
2019-03-06T19:01:16.777Z,4.13
2019-03-06T19:03:45.790Z,4.77
2019-03-06T19:06:14.603Z,4.50
2019-03-06T19:08:43.255Z,3.17
2019-03-06T19:11:16.992Z,4.77
2019-03-06T19:13:42.706Z,5.90
2019-03-06T19:16:11.867Z,4.27
2019-03-06T19:18:40.599Z,4.63
2019-03-06T19:21:09.382Z,7.03
2019-03-06T19:23:38.212Z,5.93
2019-03-06T19:26:07.036Z,3.33
2019-03-06T19:28:36.179Z,4.47
2019-03-06T19:31:05.003Z,6.20
2019-03-06T19:33:33.936Z,4.20
2019-03-06T19:36:02.990Z,3.20
2019-03-06T19:38:31.676Z,4.40
2019-03-06T19:41:00.368Z,2.63
2019-03-06T19:43:29.046Z,6.33
2019-03-06T19:45:57.819Z,3.63
2019-03-06T19:48:26.574Z,3.70
2019-03-06T19:50:55.554Z,4.47
2019-03-06T19:53:24.244Z,4.00
2019-03-06T19:55:53.438Z,4.33
2019-03-06T19:58:22.155Z,6.23
2019-03-06T20:00:50.951Z,2.90
2019-03-06T20:03:21.928Z,4.13
2019-03-06T20:05:50.888Z,3.60
2019-03-06T20:08:19.831Z,4.60
2019-03-06T20:10:48.631Z,5.50
2019-03-06T20:13:17.473Z,3.60
2019-03-06T20:15:46.269Z,4.77
2019-03-06T20:18:15.394Z,4.50
2019-03-06T20:20:44.474Z,4.07
2019-03-06T20:23:13.296Z,3.57
2019-03-06T20:25:42.345Z,5.43
2019-03-06T20:28:11.207Z,6.80
2019-03-06T20:30:39.920Z,4.00
2019-03-06T20:33:08.653Z,5.97
2019-03-06T20:35:37.813Z,3.70
2019-03-06T20:38:06.819Z,4.50
2019-03-06T20:40:35.688Z,3.97
2019-03-06T20:43:04.491Z,3.43
2019-03-06T20:45:34.428Z,3.93
2019-03-06T20:48:03.255Z,3.73
2019-03-06T20:50:31.970Z,5.33
2019-03-06T20:53:00.716Z,4.87
2019-03-06T20:55:29.794Z,6.90
2019-03-06T20:57:59.194Z,3.50
2019-03-06T21:00:28.828Z,3.83
2019-03-06T21:02:57.569Z,6.23
2019-03-06T21:05:26.242Z,2.27
2019-03-06T21:07:55.229Z,3.63
2019-03-06T21:10:23.984Z,4.20
2019-03-06T21:12:53.390Z,4.80
2019-03-06T21:15:22.117Z,9.30
2019-03-06T21:17:50.856Z,3.67
2019-03-06T21:20:19.617Z,3.10
2019-03-06T21:22:48.483Z,4.53
2019-03-06T21:25:17.896Z,6.67
2019-03-06T21:27:46.747Z,2.93
2019-03-06T21:30:19.107Z,3.33
2019-03-06T21:32:47.866Z,4.17
2019-03-06T21:35:16.566Z,3.50
2019-03-06T21:37:45.225Z,3.97
2019-03-06T21:40:14.081Z,4.57
2019-03-06T21:42:42.818Z,3.43
2019-03-06T21:45:11.777Z,3.10
2019-03-06T21:47:40.516Z,3.63
2019-03-06T21:50:11.190Z,4.80
2019-03-06T21:52:39.936Z,5.07
2019-03-06T21:56:41.705Z,3.53
2019-03-06T21:59:10.454Z,7.30
2019-03-06T22:01:39.243Z,3.47
2019-03-06T22:04:08.053Z,4.13
2019-03-06T22:06:37.202Z,3.67
2019-03-06T22:09:11.747Z,3.13
2019-03-06T22:11:40.455Z,4.70
2019-03-06T22:14:09.173Z,2.87
2019-03-06T22:16:38.779Z,5.00
2019-03-06T22:19:07.543Z,7.27
2019-03-06T22:21:36.410Z,5.53
2019-03-06T22:24:05.314Z,3.93
2019-03-06T22:26:34.008Z,3.97
2019-03-06T22:29:02.802Z,6.47
2019-03-06T22:31:31.526Z,3.80
2019-03-06T22:34:00.251Z,4.40
2019-03-06T22:36:29.075Z,3.57
2019-03-06T22:38:57.787Z,3.47
2019-03-06T22:41:26.830Z,2.80
2019-03-06T22:43:55.619Z,5.67
2019-03-06T22:46:24.313Z,3.53
2019-03-06T22:48:53.443Z,2.97
2019-03-06T22:51:22.192Z,3.30
2019-03-06T22:53:51.589Z,4.07
2019-03-06T22:56:20.331Z,3.50
2019-03-06T22:58:49.015Z,2.93
2019-03-06T23:01:22.344Z,4.20
2019-03-06T23:03:51.490Z,3.97
2019-03-06T23:06:20.167Z,3.13
2019-03-06T23:08:48.984Z,2.97
2019-03-06T23:11:18.065Z,4.27
2019-03-06T23:13:47.007Z,3.10
2019-03-06T23:16:16.260Z,3.20
2019-03-06T23:18:45.046Z,4.07
2019-03-06T23:21:13.826Z,4.40
2019-03-06T23:23:42.707Z,4.03
2019-03-06T23:26:11.403Z,5.10
2019-03-06T23:28:40.157Z,5.53
2019-03-06T23:31:08.883Z,3.20
2019-03-06T23:33:37.573Z,3.53
2019-03-06T23:36:06.279Z,4.40
2019-03-06T23:38:35.247Z,3.07
2019-03-06T23:41:04.020Z,6.37
2019-03-06T23:43:32.755Z,2.93
2019-03-06T23:46:01.439Z,4.70
2019-03-06T23:48:30.184Z,4.90
2019-03-06T23:51:00.700Z,4.00
2019-03-06T23:53:42.927Z,3.37
2019-03-06T23:56:11.606Z,5.50
